TRINITY LAKE (CLE)

Elevation: 2370' · TRINITY R basin · Operator: US Bureau of Reclamation

Provisional data, subject to change.
Query executed Thursday at 23:02:51   clock

Select a sensor type for a plot of data.
Note: Reservoir Flows are daily averages.

Earlier

Date RES ELE    STORAGE    RES CHG    OUTFLOW    INFLOW    EVAP    FNF    RIV REL    PPT INC    SPILL    DIS PWR   
 FEET   AF   AF   CFS   CFS   CFS   CFS   CFS   INCHES   CFS   CFS  
03/29/2016 2282.81 1268994 5508 338 3115 0 3115 0 0.00 0 338
03/30/2016 2283.32 1274419 5425 241 3061 85 3061 0 0.00 0 241
03/31/2016 2283.80 1279539 5120 361 2983 41 2983 0 0.00 0 361
04/01/2016 2284.36 1285539 6000 309 3388 54 3388 0 0.00 0 309
04/02/2016 2285.04 1292846 7307 237 3969 48 3969 0 0.00 0 237
04/03/2016 2285.83 1301390 8544 243 4605 54 4605 0 0.00 0 243
04/04/2016 2286.61 1309873 8483 317 4636 42 4636 0 0.00 0 317
04/05/2016 2287.33 1317740 7867 217 4244 61 4244 0 0.00 0 217
04/06/2016 2288.03 1325420 7680 542 4479 65 4778 e 0 0.00 0 542
04/07/2016 2288.98 1335912 10492 328 5690 72 4778 e 0 0.00 0 328
04/08/2016 2289.92 1346363 10451 324 5655 62 6886 0 0.00 0 324
04/09/2016 2290.92 1357550 11187 344 6060 76 6347 0 0.00 0 344
04/10/2016 2292.07 1370496 12946 326 6900 47 6736 0 0.05 0 326
04/11/2016 2293.18 1383079 12583 482 6863 37 6121 0 0.05 0 482
04/12/2016 2294.33 1396201 13122 268 6914 30 6914 0 0.55 0 268
04/13/2016 2295.21 1406298 10097 372 5516 54 5516 0 0.00 0 372
04/14/2016 2295.92 1414482 8184 327 4490 37 4490 0 0.27 0 327
04/15/2016 2296.49 1421085 6603 331 3674 14 3674 0 0.00 0 331
04/16/2016 2297.01 1427114 6029 285 3383 58 3383 0 0.00 0 285
04/17/2016 2297.54 1433293 6179 357 3547 75 3547 0 0.00 0 357
04/18/2016 2298.11 1439947 6654 459 3886 72 3886 0 0.00 0 459
04/19/2016 2298.76 1447571 7624 339 4183 0 4183 0 0.00 0 339
04/20/2016 2299.45 1455694 8123 287 4448 66 4448 0 0.00 0 287
04/21/2016 2300.05 1462775 7081 568 4232 94 4232 0 0.00 0 568
04/22/2016 2300.82 1471908 9133 636 5271 31 5271 0 0.52 0 636
04/23/2016 2301.37 1478455 6547 629 3944 14 3944 0 0.07 0 629
04/24/2016 2301.80 1483581 5126 630 3267 53 3267 0 0.00 0 630
04/25/2016 2302.17 1488003 4422 953 3242 60 3242 0 0.00 0 953
04/26/2016 2302.36 1490281 2278 1450 2665 67 2665 0 0.00 0 1450
04/27/2016 2302.48 1491719 1438 1874 2655 56 2655 0 0.18 0 1874
04/28/2016 -- -- -- -- -- -- -- -- -- -- --

Later | Latest

Warning! This data is preliminary and subject to revision.

Show CLE Map | Plot CLE Data | 1 Month CLE Data | Real-Time CLE Data | CLE Info